createdAt,value
2017-04-30T00:00:35.703Z,3.87
2017-04-30T00:01:16.343Z,3.86
2017-04-30T00:01:57.004Z,3.87
2017-04-30T00:02:37.668Z,3.84
2017-04-30T00:03:18.315Z,3.84
2017-04-30T00:03:58.946Z,3.86
2017-04-30T00:04:39.620Z,3.76
2017-04-30T00:05:20.272Z,3.76
2017-04-30T00:06:00.906Z,3.83
2017-04-30T00:06:41.557Z,3.84
2017-04-30T00:07:22.232Z,3.8
2017-04-30T00:08:03.895Z,3.77
2017-04-30T00:08:44.567Z,3.78
2017-04-30T00:09:25.235Z,3.87
2017-04-30T00:10:05.858Z,3.83
2017-04-30T00:10:46.509Z,3.76
2017-04-30T00:11:27.161Z,3.83
2017-04-30T00:12:07.819Z,3.81
2017-04-30T00:12:48.468Z,3.77
2017-04-30T00:13:30.151Z,3.78
2017-04-30T00:14:10.891Z,3.74
2017-04-30T00:14:51.448Z,3.73
2017-04-30T00:15:33.138Z,3.73
2017-04-30T00:16:13.819Z,3.74
2017-04-30T00:16:54.416Z,3.65
2017-04-30T00:17:35.027Z,3.69
2017-04-30T00:18:15.687Z,3.63
2017-04-30T00:18:56.253Z,3.68
2017-04-30T00:19:36.925Z,3.69
2017-04-30T00:20:17.531Z,3.63
2017-04-30T00:20:58.167Z,3.59
2017-04-30T00:21:38.808Z,3.66
2017-04-30T00:22:19.467Z,3.59
2017-04-30T00:23:00.116Z,3.56
2017-04-30T00:23:40.765Z,3.59
2017-04-30T00:24:21.460Z,3.58
2017-04-30T00:25:02.133Z,3.55
2017-04-30T00:25:43.759Z,3.5
2017-04-30T00:26:24.440Z,3.56
2017-04-30T00:27:05.140Z,3.55
2017-04-30T00:27:45.705Z,3.53
2017-04-30T00:28:26.438Z,3.51
2017-04-30T00:29:06.949Z,3.48
2017-04-30T00:29:47.557Z,3.47
2017-04-30T00:30:28.182Z,3.48
2017-04-30T00:31:08.756Z,3.45
2017-04-30T00:31:50.374Z,3.44
2017-04-30T00:32:31.015Z,3.5
2017-04-30T00:33:11.639Z,3.45
2017-04-30T00:33:52.316Z,3.44
2017-04-30T00:34:32.969Z,3.42
2017-04-30T00:35:13.604Z,3.42
2017-04-30T00:35:54.313Z,3.4
2017-04-30T00:36:34.983Z,3.42
2017-04-30T00:37:15.624Z,3.37
2017-04-30T00:37:56.301Z,3.45
2017-04-30T00:38:36.966Z,3.5
2017-04-30T00:39:17.583Z,3.44
2017-04-30T00:39:58.235Z,3.4
2017-04-30T00:40:38.890Z,3.41
2017-04-30T00:41:19.583Z,3.4
2017-04-30T00:42:00.286Z,3.32
2017-04-30T00:42:40.835Z,3.42
2017-04-30T00:43:21.492Z,3.42
2017-04-30T00:44:02.189Z,3.36
2017-04-30T00:44:42.895Z,3.4
2017-04-30T00:45:23.477Z,3.44
2017-04-30T00:46:04.104Z,3.44
2017-04-30T00:46:44.772Z,3.32
2017-04-30T00:47:25.421Z,3.44
2017-04-30T00:48:06.070Z,3.42
2017-04-30T00:48:47.888Z,3.36
2017-04-30T00:49:28.518Z,3.42
2017-04-30T00:50:09.157Z,3.4
2017-04-30T00:50:49.802Z,3.37
2017-04-30T00:51:30.458Z,3.44
2017-04-30T00:52:11.109Z,3.4
2017-04-30T00:52:51.784Z,3.36
2017-04-30T00:53:32.422Z,3.32
2017-04-30T00:54:13.066Z,3.31
2017-04-30T00:54:53.765Z,3.31
2017-04-30T00:55:34.394Z,3.31
2017-04-30T00:56:15.040Z,3.36
2017-04-30T00:56:55.693Z,3.36
2017-04-30T00:57:36.333Z,3.37
2017-04-30T00:58:17.006Z,3.31
2017-04-30T00:58:57.655Z,3.32
2017-04-30T00:59:38.301Z,3.36
2017-04-30T01:00:18.960Z,3.29
2017-04-30T01:00:59.597Z,3.31
2017-04-30T01:01:40.254Z,3.26
2017-04-30T01:02:20.904Z,3.32
2017-04-30T01:03:01.634Z,3.36
2017-04-30T01:03:42.321Z,3.34
2017-04-30T01:04:22.982Z,3.32
2017-04-30T01:05:03.631Z,3.36
2017-04-30T01:05:44.295Z,3.29
2017-04-30T01:06:24.981Z,3.29
2017-04-30T01:07:05.772Z,3.29
2017-04-30T01:07:46.360Z,3.29
2017-04-30T01:08:27.003Z,3.36
2017-04-30T01:09:07.683Z,3.36
2017-04-30T01:09:48.382Z,3.36
2017-04-30T01:10:28.961Z,3.28
2017-04-30T01:11:09.591Z,3.32
2017-04-30T01:11:50.240Z,3.29
2017-04-30T01:12:30.813Z,3.36
2017-04-30T01:13:11.462Z,3.31
2017-04-30T01:13:52.100Z,3.31
2017-04-30T01:14:32.664Z,3.31
2017-04-30T01:15:13.323Z,3.37
2017-04-30T01:15:54.052Z,3.32
2017-04-30T01:16:34.628Z,3.28
2017-04-30T01:17:15.281Z,3.28
2017-04-30T01:17:55.972Z,3.28
2017-04-30T01:18:36.668Z,3.31
2017-04-30T01:19:17.225Z,3.32
2017-04-30T01:19:57.892Z,3.29
2017-04-30T01:20:38.590Z,3.29
2017-04-30T01:21:19.193Z,3.36
2017-04-30T01:21:59.855Z,3.29
2017-04-30T01:22:40.501Z,3.31
2017-04-30T01:23:21.153Z,3.26
2017-04-30T01:24:01.806Z,3.32
2017-04-30T01:24:42.458Z,3.25
2017-04-30T01:25:23.121Z,3.32
2017-04-30T01:26:03.813Z,3.34
2017-04-30T01:26:44.503Z,3.31
2017-04-30T01:27:25.069Z,3.31
2017-04-30T01:28:05.728Z,3.32
2017-04-30T01:28:46.425Z,3.28
2017-04-30T01:29:27.118Z,3.32
2017-04-30T01:30:07.697Z,3.32
2017-04-30T01:30:48.449Z,3.26
2017-04-30T01:31:29.121Z,3.34
2017-04-30T01:32:09.768Z,3.34
2017-04-30T01:32:50.454Z,3.34
2017-04-30T01:33:31.170Z,3.29
2017-04-30T01:34:11.815Z,3.32
2017-04-30T01:34:52.489Z,3.23
2017-04-30T01:35:33.225Z,3.25
2017-04-30T01:36:14.935Z,3.25
2017-04-30T01:36:55.632Z,3.19
2017-04-30T01:37:36.285Z,3.18
2017-04-30T01:38:16.964Z,3.22
2017-04-30T01:38:57.650Z,3.18
2017-04-30T01:39:38.360Z,3.22
2017-04-30T01:40:18.921Z,3.13
2017-04-30T01:40:59.581Z,3.07
2017-04-30T01:41:40.227Z,3.22
2017-04-30T01:42:20.886Z,3.21
2017-04-30T01:43:01.545Z,3.13
2017-04-30T01:43:42.193Z,3.18
2017-04-30T01:44:22.844Z,3.23
2017-04-30T01:45:03.499Z,3.25
2017-04-30T01:45:44.154Z,3.16
2017-04-30T01:46:25.901Z,3.19
2017-04-30T01:47:06.587Z,3.18
2017-04-30T01:47:47.240Z,3.18
2017-04-30T01:48:27.872Z,3.16
2017-04-30T01:49:08.567Z,3.18
2017-04-30T01:49:49.182Z,3.16
2017-04-30T01:50:29.846Z,3.11
2017-04-30T01:51:10.571Z,3.16
2017-04-30T01:51:51.156Z,3.18
2017-04-30T01:52:31.783Z,3.18
2017-04-30T01:53:12.434Z,3.18
2017-04-30T01:53:53.015Z,3.18
2017-04-30T01:54:33.661Z,3.21
2017-04-30T01:55:14.285Z,3.1
2017-04-30T01:55:54.864Z,3.18
2017-04-30T01:56:35.506Z,3.07
2017-04-30T01:57:16.207Z,3.05
2017-04-30T01:57:56.898Z,3.04
2017-04-30T01:58:37.456Z,3.07
2017-04-30T01:59:18.135Z,3.1
2017-04-30T01:59:58.820Z,3.07
2017-04-30T02:00:39.509Z,3.1
2017-04-30T02:01:20.076Z,3.14
2017-04-30T02:02:01.760Z,3.07
2017-04-30T02:02:42.448Z,3.01
2017-04-30T02:03:23.142Z,3.1
2017-04-30T02:04:03.710Z,3.04
2017-04-30T02:04:44.367Z,3.1
2017-04-30T02:05:25.056Z,3.07
2017-04-30T02:06:05.760Z,3.07
2017-04-30T02:06:46.410Z,3.08
2017-04-30T02:07:27.072Z,3.04
2017-04-30T02:08:07.719Z,3.04
2017-04-30T02:08:48.367Z,3.08
2017-04-30T02:09:29.025Z,3.03
2017-04-30T02:10:09.673Z,3.04
2017-04-30T02:10:50.228Z,3
2017-04-30T02:11:30.896Z,3.04
2017-04-30T02:12:11.589Z,3.07
2017-04-30T02:12:52.291Z,2.97
2017-04-30T02:13:32.854Z,3
2017-04-30T02:14:13.511Z,2.98
2017-04-30T02:14:54.200Z,3.01
2017-04-30T02:15:34.902Z,2.92
2017-04-30T02:16:15.554Z,2.98
2017-04-30T02:16:56.207Z,2.93
2017-04-30T02:17:36.861Z,2.93
2017-04-30T02:18:17.514Z,2.93
2017-04-30T02:18:58.170Z,2.95
2017-04-30T02:19:38.824Z,2.9
2017-04-30T02:20:20.060Z,2.97
2017-04-30T02:21:00.707Z,2.97
2017-04-30T02:21:41.360Z,2.97
2017-04-30T02:22:23.037Z,2.92
2017-04-30T02:23:03.688Z,2.93
2017-04-30T02:23:44.343Z,2.9
2017-04-30T02:24:24.993Z,2.97
2017-04-30T02:25:05.645Z,2.93
2017-04-30T02:25:46.217Z,2.87
2017-04-30T02:26:26.860Z,2.97
2017-04-30T02:27:07.503Z,2.93
2017-04-30T02:27:48.073Z,2.95
2017-04-30T02:28:28.724Z,2.86
2017-04-30T02:29:09.369Z,2.86
2017-04-30T02:29:49.956Z,2.86
2017-04-30T02:30:30.572Z,2.89
2017-04-30T02:31:11.214Z,2.79
2017-04-30T02:31:51.864Z,2.8
2017-04-30T02:32:33.213Z,2.85
2017-04-30T02:33:13.894Z,2.72
2017-04-30T02:33:54.544Z,2.77
2017-04-30T02:34:35.191Z,2.82
2017-04-30T02:35:15.851Z,2.77
2017-04-30T02:35:56.443Z,2.77
2017-04-30T02:36:37.133Z,2.82
2017-04-30T02:37:17.808Z,2.8
2017-04-30T02:37:58.365Z,2.74
2017-04-30T02:38:39.041Z,2.8
2017-04-30T02:39:19.666Z,2.82
2017-04-30T02:40:00.239Z,2.82
2017-04-30T02:40:40.901Z,2.87
2017-04-30T02:41:21.632Z,2.8
2017-04-30T02:42:02.280Z,2.87
2017-04-30T02:42:42.931Z,2.82
2017-04-30T02:43:23.591Z,2.79
2017-04-30T02:44:04.236Z,2.79
2017-04-30T02:44:44.895Z,2.87
2017-04-30T02:45:25.545Z,2.82
2017-04-30T02:46:06.198Z,2.72
2017-04-30T02:46:46.866Z,2.82
2017-04-30T02:47:27.507Z,2.75
2017-04-30T02:48:08.159Z,2.79
2017-04-30T02:48:48.814Z,2.85
2017-04-30T02:49:29.465Z,2.69
2017-04-30T02:50:10.116Z,2.72
2017-04-30T02:50:50.768Z,2.69
2017-04-30T02:51:31.423Z,2.75
2017-04-30T02:52:12.076Z,2.75
2017-04-30T02:52:52.729Z,2.72
2017-04-30T02:53:34.203Z,2.72
2017-04-30T02:54:14.872Z,2.79
2017-04-30T02:54:55.522Z,2.71
2017-04-30T02:55:36.157Z,2.71
2017-04-30T02:56:16.913Z,2.68
2017-04-30T02:56:57.565Z,2.72
2017-04-30T02:57:38.221Z,2.69
2017-04-30T02:58:18.871Z,2.74
2017-04-30T02:58:59.520Z,2.68
2017-04-30T02:59:40.178Z,2.69
2017-04-30T03:00:20.830Z,2.72
2017-04-30T03:01:01.487Z,2.69
2017-04-30T03:01:43.162Z,2.68
2017-04-30T03:02:23.918Z,2.72
2017-04-30T03:03:04.566Z,2.64
2017-04-30T03:03:45.221Z,2.68
2017-04-30T03:04:25.874Z,2.62
2017-04-30T03:05:06.527Z,2.65
2017-04-30T03:05:47.182Z,2.6
2017-04-30T03:06:27.834Z,2.64
2017-04-30T03:07:08.485Z,2.65
2017-04-30T03:07:49.140Z,2.65
2017-04-30T03:08:29.791Z,2.65
2017-04-30T03:09:10.444Z,2.64
2017-04-30T03:09:51.098Z,2.65
2017-04-30T03:10:31.751Z,2.67
2017-04-30T03:11:12.328Z,2.5
2017-04-30T03:11:52.956Z,2.53
2017-04-30T03:12:33.676Z,2.5
2017-04-30T03:13:14.362Z,2.53
2017-04-30T03:13:54.939Z,2.51
2017-04-30T03:14:35.590Z,2.51
2017-04-30T03:15:16.278Z,2.54
2017-04-30T03:15:56.977Z,2.49
2017-04-30T03:16:37.630Z,2.53
2017-04-30T03:17:18.280Z,2.5
2017-04-30T03:17:58.937Z,2.53
2017-04-30T03:18:39.586Z,2.44
2017-04-30T03:19:20.259Z,2.56
2017-04-30T03:20:00.889Z,2.47
2017-04-30T03:20:41.544Z,2.56
2017-04-30T03:21:22.109Z,2.43
2017-04-30T03:22:02.767Z,2.49
2017-04-30T03:22:43.376Z,2.53
2017-04-30T03:23:24.052Z,2.46
2017-04-30T03:24:04.625Z,2.5
2017-04-30T03:24:45.290Z,2.36
2017-04-30T03:25:25.975Z,2.39
2017-04-30T03:26:06.668Z,2.47
2017-04-30T03:26:47.249Z,2.36
2017-04-30T03:27:27.891Z,2.46
2017-04-30T03:28:08.579Z,2.46
2017-04-30T03:28:49.278Z,2.47
2017-04-30T03:29:29.833Z,2.42
2017-04-30T03:30:10.505Z,2.47
2017-04-30T03:30:51.212Z,2.42
2017-04-30T03:31:32.921Z,2.49
2017-04-30T03:32:13.545Z,2.47
2017-04-30T03:32:54.247Z,2.5
2017-04-30T03:33:34.936Z,2.36
2017-04-30T03:34:15.637Z,2.43
2017-04-30T03:34:56.199Z,2.49
2017-04-30T03:35:36.850Z,2.39
2017-04-30T03:36:17.549Z,2.49
2017-04-30T03:37:00.214Z,2.5
2017-04-30T03:37:40.868Z,2.5
2017-04-30T03:38:21.498Z,2.51
2017-04-30T03:39:02.167Z,2.5
2017-04-30T03:39:42.807Z,2.51
2017-04-30T03:40:23.491Z,2.46
2017-04-30T03:41:04.115Z,2.44
2017-04-30T03:41:44.763Z,2.38
2017-04-30T03:42:25.433Z,2.38
2017-04-30T03:43:06.070Z,2.49
2017-04-30T03:43:46.739Z,2.42
2017-04-30T03:44:27.407Z,2.35
2017-04-30T03:45:08.821Z,2.36
2017-04-30T03:45:49.513Z,2.43
2017-04-30T03:46:30.200Z,2.36
2017-04-30T03:47:10.900Z,2.42
2017-04-30T03:47:51.470Z,2.38
2017-04-30T03:48:32.129Z,2.39
2017-04-30T03:49:12.822Z,2.46
2017-04-30T03:49:53.513Z,2.43
2017-04-30T03:50:34.631Z,2.38
2017-04-30T03:51:14.749Z,2.38
2017-04-30T03:51:55.465Z,2.38
2017-04-30T03:52:36.129Z,2.32
2017-04-30T03:53:16.682Z,2.29
2017-04-30T03:53:57.344Z,2.26
2017-04-30T03:54:39.976Z,2.29
2017-04-30T03:55:20.685Z,2.25
2017-04-30T03:56:01.251Z,2.25
2017-04-30T03:56:41.910Z,2.24
2017-04-30T03:57:23.581Z,2.24
2017-04-30T03:58:04.236Z,2.17
2017-04-30T03:58:46.939Z,2.22
2017-04-30T03:59:27.588Z,2.22
2017-04-30T04:00:08.241Z,2.18
2017-04-30T04:00:50.939Z,2.2
2017-04-30T04:01:31.600Z,2.22
2017-04-30T04:02:13.275Z,2.18
2017-04-30T04:02:53.927Z,2.13
2017-04-30T04:03:34.582Z,2.17
2017-04-30T04:04:15.228Z,2.17
2017-04-30T04:04:55.930Z,2.28
2017-04-30T04:05:36.641Z,2.22
2017-04-30T04:06:19.336Z,2.22
2017-04-30T04:06:59.989Z,2.2
2017-04-30T04:07:41.673Z,2.22
2017-04-30T04:08:22.333Z,2.11
2017-04-30T04:09:02.961Z,2.14
2017-04-30T04:09:43.630Z,2.15
2017-04-30T04:10:24.293Z,2.17
2017-04-30T04:11:04.937Z,2.17
2017-04-30T04:11:45.576Z,2.07
2017-04-30T04:12:28.291Z,2.15
2017-04-30T04:13:08.944Z,2.04
2017-04-30T04:13:49.597Z,2.13
2017-04-30T04:14:30.236Z,2.04
2017-04-30T04:15:10.897Z,2.02
2017-04-30T04:15:51.559Z,2.08
2017-04-30T04:16:32.282Z,2.13
2017-04-30T04:17:12.861Z,2.04
2017-04-30T04:17:53.512Z,2.18
2017-04-30T04:18:35.166Z,2.14
2017-04-30T04:19:15.723Z,2.11
2017-04-30T04:19:56.395Z,2.2
2017-04-30T04:20:37.019Z,2.15
2017-04-30T04:21:17.676Z,2.13
2017-04-30T04:21:58.329Z,2.07
2017-04-30T04:22:38.979Z,1.99
2017-04-30T04:23:19.639Z,2.13
2017-04-30T04:24:00.292Z,2.04
2017-04-30T04:24:40.936Z,2.04
2017-04-30T04:25:21.590Z,2.18
2017-04-30T04:26:02.168Z,2.22
2017-04-30T04:26:42.808Z,2.25
2017-04-30T04:27:23.503Z,2.15
2017-04-30T04:28:04.202Z,2.25
2017-04-30T04:28:44.761Z,2.22
2017-04-30T04:29:25.424Z,2.2
2017-04-30T04:30:06.120Z,2.26
2017-04-30T04:30:46.812Z,2.22
2017-04-30T04:31:27.395Z,2.31
2017-04-30T04:32:08.037Z,2.32
2017-04-30T04:32:48.693Z,2.32
2017-04-30T04:33:29.352Z,2.39
2017-04-30T04:34:10.015Z,2.38
2017-04-30T04:34:50.658Z,2.39
2017-04-30T04:35:31.298Z,2.47
2017-04-30T04:36:11.953Z,2.46
2017-04-30T04:36:52.608Z,2.51
2017-04-30T04:37:33.261Z,2.42
2017-04-30T04:38:13.915Z,2.49
2017-04-30T04:38:54.564Z,2.51
2017-04-30T04:39:35.216Z,2.57
2017-04-30T04:40:15.875Z,2.54
2017-04-30T04:40:56.520Z,2.51
2017-04-30T04:41:37.186Z,2.53
2017-04-30T04:42:17.826Z,2.5
2017-04-30T04:42:58.488Z,2.53
2017-04-30T04:43:39.135Z,2.51
2017-04-30T04:44:19.851Z,2.5
2017-04-30T04:45:00.554Z,2.62
2017-04-30T04:45:41.192Z,2.67
2017-04-30T04:46:21.864Z,2.65
2017-04-30T04:47:02.515Z,2.61
2017-04-30T04:47:43.166Z,2.64
2017-04-30T04:48:23.811Z,2.69
2017-04-30T04:49:04.465Z,2.75
2017-04-30T04:49:45.117Z,2.71
2017-04-30T04:50:25.781Z,2.69
2017-04-30T04:51:06.419Z,2.8
2017-04-30T04:51:47.070Z,2.86
2017-04-30T04:52:27.738Z,2.83
2017-04-30T04:53:08.382Z,2.75
2017-04-30T04:53:49.034Z,2.82
2017-04-30T04:54:29.684Z,2.85
2017-04-30T04:55:10.350Z,2.83
2017-04-30T04:55:50.994Z,2.8
2017-04-30T04:56:31.685Z,2.83
2017-04-30T04:57:12.387Z,2.9
2017-04-30T04:57:52.989Z,2.85
2017-04-30T04:58:33.710Z,2.98
2017-04-30T04:59:14.398Z,2.98
2017-04-30T04:59:55.101Z,2.97
2017-04-30T05:00:35.666Z,2.98
2017-04-30T05:01:16.338Z,2.92
2017-04-30T05:01:57.009Z,2.95
2017-04-30T05:02:37.711Z,3.01
2017-04-30T05:03:18.286Z,3
2017-04-30T05:03:58.944Z,3.05
2017-04-30T05:04:39.623Z,3.08
2017-04-30T05:05:20.327Z,3.13
2017-04-30T05:06:00.877Z,3.13
2017-04-30T05:06:41.537Z,3.21
2017-04-30T05:07:22.178Z,3.29
2017-04-30T05:08:02.744Z,3.23
2017-04-30T05:08:43.412Z,3.22
2017-04-30T05:09:24.042Z,3.13
2017-04-30T05:10:04.602Z,3.34
2017-04-30T05:10:45.268Z,3.32
2017-04-30T05:11:25.998Z,3.34
2017-04-30T05:12:06.652Z,3.42
2017-04-30T05:12:47.305Z,3.41
2017-04-30T05:13:27.953Z,3.42
2017-04-30T05:14:08.614Z,3.42
2017-04-30T05:14:49.260Z,3.56
2017-04-30T05:15:29.916Z,3.58
2017-04-30T05:16:10.467Z,3.56
2017-04-30T05:16:51.126Z,3.6
2017-04-30T05:17:31.782Z,3.63
2017-04-30T05:18:12.449Z,3.56
2017-04-30T05:18:53.109Z,3.66
2017-04-30T05:19:33.753Z,3.62
2017-04-30T05:20:14.401Z,3.66
2017-04-30T05:20:55.038Z,3.74
2017-04-30T05:21:35.689Z,3.77
2017-04-30T05:22:16.243Z,3.84
2017-04-30T05:22:56.919Z,3.83
2017-04-30T05:23:37.651Z,3.84
2017-04-30T05:24:18.240Z,3.81
2017-04-30T05:24:58.972Z,3.83
2017-04-30T05:25:39.536Z,3.94
2017-04-30T05:26:20.108Z,3.95
2017-04-30T05:27:00.681Z,3.99
2017-04-30T05:27:41.232Z,4.02
2017-04-30T05:28:21.909Z,3.99
2017-04-30T05:29:02.562Z,4.01
2017-04-30T05:29:43.160Z,3.96
2017-04-30T05:30:23.741Z,4.01
2017-04-30T05:31:04.431Z,4.12
2017-04-30T05:31:45.093Z,4.13
2017-04-30T05:32:25.727Z,4.13
2017-04-30T05:33:06.455Z,4.19
2017-04-30T05:33:47.115Z,4.13
2017-04-30T05:34:27.762Z,4.19
2017-04-30T05:35:08.493Z,4.22
2017-04-30T05:35:49.164Z,4.23
2017-04-30T05:36:29.849Z,4.3
2017-04-30T05:37:10.410Z,4.32
2017-04-30T05:37:51.068Z,4.23
2017-04-30T05:38:32.793Z,4.32
2017-04-30T05:39:13.484Z,4.35
2017-04-30T05:39:54.086Z,4.35
2017-04-30T05:40:34.821Z,4.48
2017-04-30T05:41:15.514Z,4.4
2017-04-30T05:41:56.273Z,4.49
2017-04-30T05:42:36.926Z,4.44
2017-04-30T05:43:17.690Z,4.5
2017-04-30T05:43:58.437Z,4.55
2017-04-30T05:44:39.173Z,4.62
2017-04-30T05:45:19.826Z,4.6
2017-04-30T05:46:00.506Z,4.7
2017-04-30T05:46:41.049Z,4.68
2017-04-30T05:47:21.781Z,4.75
2017-04-30T05:48:02.484Z,4.7
2017-04-30T05:48:43.037Z,4.73
2017-04-30T05:49:23.704Z,4.73
2017-04-30T05:50:04.342Z,4.67
2017-04-30T05:50:44.938Z,4.8
2017-04-30T05:51:25.682Z,4.84
2017-04-30T05:52:06.360Z,4.87
2017-04-30T05:52:47.062Z,4.78
2017-04-30T05:53:27.609Z,4.89
2017-04-30T05:54:08.294Z,4.87
2017-04-30T05:54:48.969Z,4.86
2017-04-30T05:55:29.682Z,4.89
2017-04-30T05:56:10.292Z,4.94
2017-04-30T05:56:51.009Z,4.89
2017-04-30T05:57:31.651Z,5.02
2017-04-30T05:58:12.303Z,4.94
2017-04-30T05:58:52.979Z,4.94
2017-04-30T05:59:33.712Z,5.02
2017-04-30T06:00:14.346Z,4.97
2017-04-30T06:00:55.001Z,4.96
2017-04-30T06:01:35.664Z,4.97
2017-04-30T06:02:16.324Z,4.94
2017-04-30T06:02:57.066Z,4.96
2017-04-30T06:03:37.745Z,5.02
2017-04-30T06:04:18.482Z,5.11
2017-04-30T06:04:59.149Z,5.04
2017-04-30T06:05:39.938Z,5.05
2017-04-30T06:06:20.646Z,5.11
2017-04-30T06:07:01.304Z,5.1
2017-04-30T06:07:41.950Z,5.11
2017-04-30T06:08:22.626Z,5.14
2017-04-30T06:09:03.358Z,5.15
2017-04-30T06:09:44.221Z,5.17
2017-04-30T06:10:24.879Z,5.18
2017-04-30T06:11:05.524Z,5.21
2017-04-30T06:11:46.174Z,5.2
2017-04-30T06:12:26.849Z,5.25
2017-04-30T06:13:07.595Z,5.25
2017-04-30T06:13:48.406Z,5.21
2017-04-30T06:14:29.115Z,5.25
2017-04-30T06:15:09.874Z,5.26
2017-04-30T06:15:50.628Z,5.41
2017-04-30T06:16:31.211Z,5.39
2017-04-30T06:17:11.905Z,5.36
2017-04-30T06:17:52.563Z,5.41
2017-04-30T06:18:33.314Z,5.36
2017-04-30T06:19:13.996Z,5.36
2017-04-30T06:19:54.757Z,5.32
2017-04-30T06:20:35.504Z,5.38
2017-04-30T06:21:16.251Z,5.5
2017-04-30T06:21:56.937Z,5.46
2017-04-30T06:22:37.631Z,5.47
2017-04-30T06:23:18.261Z,5.5
2017-04-30T06:23:58.947Z,5.56
2017-04-30T06:24:39.655Z,5.66
2017-04-30T06:25:20.345Z,5.65
2017-04-30T06:26:01.005Z,5.62
2017-04-30T06:26:41.686Z,5.64
2017-04-30T07:06:28.487Z,7.29
2017-04-30T07:07:09.180Z,7.31
2017-04-30T07:07:49.833Z,7.28
2017-04-30T07:08:30.511Z,7.33
2017-04-30T07:09:11.241Z,7.35
2017-04-30T07:09:52.003Z,7.4
2017-04-30T07:10:32.749Z,7.39
2017-04-30T07:11:13.514Z,7.4
2017-04-30T07:11:54.263Z,7.42
2017-04-30T07:12:34.898Z,7.43
2017-04-30T07:13:15.573Z,7.42
2017-04-30T07:13:56.302Z,7.51
2017-04-30T07:14:37.061Z,7.5
2017-04-30T07:15:17.816Z,7.51
2017-04-30T07:15:58.569Z,7.57
2017-04-30T07:16:39.324Z,7.58
2017-04-30T07:17:21.003Z,7.53
2017-04-30T07:18:01.658Z,7.67
2017-04-30T07:18:42.409Z,7.69
2017-04-30T07:19:23.167Z,7.72
2017-04-30T07:20:04.844Z,7.69
2017-04-30T07:20:45.496Z,7.77
2017-04-30T07:21:26.057Z,7.79
2017-04-30T07:22:06.710Z,7.79
2017-04-30T07:22:47.406Z,7.87
2017-04-30T07:23:30.165Z,7.82
2017-04-30T07:24:10.740Z,7.87
2017-04-30T07:24:51.374Z,7.9
2017-04-30T07:25:33.103Z,7.94
2017-04-30T07:26:13.799Z,8.03
2017-04-30T07:26:54.396Z,7.97
2017-04-30T07:27:36.176Z,7.97
2017-04-30T07:28:18.842Z,8.05
2017-04-30T07:29:00.532Z,8.08
2017-04-30T07:29:43.265Z,8.15
2017-04-30T07:30:23.975Z,8.08
2017-04-30T07:31:04.730Z,8.15
2017-04-30T07:31:45.378Z,8.26
2017-04-30T07:32:26.037Z,8.1
2017-04-30T07:33:06.819Z,8.23
2017-04-30T07:33:47.551Z,8.28
2017-04-30T07:34:28.337Z,8.24
2017-04-30T07:35:10.091Z,8.24
2017-04-30T07:35:50.875Z,8.28
2017-04-30T07:36:31.587Z,8.27
2017-04-30T07:37:12.245Z,8.38
2017-04-30T07:37:53.943Z,8.37
2017-04-30T07:38:34.685Z,8.37
2017-04-30T07:39:15.444Z,8.38
2017-04-30T07:39:56.189Z,8.45
2017-04-30T07:40:36.944Z,8.52
2017-04-30T07:41:18.648Z,8.49
2017-04-30T07:41:59.378Z,8.58
2017-04-30T07:42:41.052Z,8.63
2017-04-30T07:43:21.817Z,8.64
2017-04-30T07:44:03.080Z,8.67
2017-04-30T07:44:43.830Z,8.64
2017-04-30T07:45:24.612Z,8.71
2017-04-30T07:46:05.371Z,8.66
2017-04-30T07:46:46.120Z,8.71
2017-04-30T07:47:26.876Z,8.79
2017-04-30T07:48:07.686Z,8.88
2017-04-30T07:48:48.364Z,8.82
2017-04-30T07:49:29.111Z,8.89
2017-04-30T07:50:09.875Z,8.99
2017-04-30T07:50:51.553Z,9
2017-04-30T07:51:32.324Z,9.06
2017-04-30T07:52:13.069Z,9.1
2017-04-30T07:52:58.438Z,9.08
2017-04-30T07:53:39.181Z,9.14
2017-04-30T07:54:20.853Z,9.06
2017-04-30T07:55:01.612Z,9.16
2017-04-30T07:55:42.383Z,9.23
2017-04-30T07:56:27.937Z,9.19
2017-04-30T07:57:08.666Z,9.31
2017-04-30T07:57:49.236Z,9.36
2017-04-30T07:58:29.793Z,9.31
2017-04-30T07:59:11.485Z,9.39
2017-04-30T07:59:52.169Z,9.4
2017-04-30T08:00:33.181Z,9.39
2017-04-30T08:01:13.960Z,9.4
2017-04-30T08:01:55.735Z,9.55
2017-04-30T08:02:37.393Z,9.56
2017-04-30T08:03:18.167Z,9.56
2017-04-30T08:03:58.902Z,9.58
2017-04-30T08:04:39.678Z,9.54
2017-04-30T08:05:20.448Z,9.59
2017-04-30T08:06:02.193Z,9.59
2017-04-30T08:06:42.763Z,9.64
2017-04-30T08:07:24.531Z,9.62
2017-04-30T08:08:05.329Z,9.64
2017-04-30T08:08:47.073Z,9.69
2017-04-30T08:09:27.612Z,9.69
2017-04-30T08:10:08.180Z,9.77
2017-04-30T08:10:49.942Z,9.84
2017-04-30T08:11:30.647Z,9.83
2017-04-30T08:12:11.338Z,9.91
2017-04-30T08:12:51.891Z,9.95
2017-04-30T08:13:32.684Z,9.94
2017-04-30T08:14:13.475Z,9.99
2017-04-30T08:14:54.156Z,10.02
2017-04-30T08:15:34.742Z,10.12
2017-04-30T08:16:15.482Z,10.1
2017-04-30T08:16:56.228Z,10.04
2017-04-30T08:17:36.789Z,10.07
2017-04-30T08:18:17.535Z,10.09
2017-04-30T08:18:58.287Z,10.09
2017-04-30T08:19:38.853Z,10.19
2017-04-30T08:20:19.615Z,10.2
2017-04-30T08:21:02.285Z,10.22
2017-04-30T08:21:42.858Z,10.16
2017-04-30T08:22:23.510Z,10.19
2017-04-30T08:23:04.309Z,10.28
2017-04-30T08:23:45.109Z,10.33
2017-04-30T08:24:25.713Z,10.28
2017-04-30T08:25:06.478Z,10.31
2017-04-30T08:25:47.134Z,10.35
2017-04-30T08:26:27.814Z,10.41
2017-04-30T08:27:08.579Z,10.42
2017-04-30T08:27:49.349Z,10.41
2017-04-30T08:28:30.090Z,10.42
2017-04-30T08:29:10.845Z,10.49
2017-04-30T08:29:51.594Z,10.51
2017-04-30T08:30:32.360Z,10.64
2017-04-30T08:31:14.135Z,10.61
2017-04-30T08:31:54.711Z,10.59
2017-04-30T08:32:35.629Z,10.69
2017-04-30T08:33:16.366Z,10.63
2017-04-30T08:33:57.081Z,10.74
2017-04-30T08:34:37.836Z,10.67
2017-04-30T08:35:18.592Z,10.68
2017-04-30T08:35:59.327Z,10.68
2017-04-30T08:36:40.086Z,10.75
2017-04-30T08:37:20.791Z,10.79
2017-04-30T08:38:01.486Z,10.81
2017-04-30T08:38:42.034Z,10.92
2017-04-30T08:39:22.801Z,10.87
2017-04-30T08:40:03.501Z,10.84
2017-04-30T08:40:44.303Z,11
2017-04-30T08:41:24.927Z,10.99
2017-04-30T08:42:05.739Z,11.02
2017-04-30T08:42:46.489Z,11.1
2017-04-30T08:43:27.277Z,11.15
2017-04-30T08:44:07.976Z,11.25
2017-04-30T08:44:48.764Z,11.29
2017-04-30T08:45:29.513Z,11.25
2017-04-30T08:46:10.261Z,11.32
2017-04-30T08:46:51.002Z,11.41
2017-04-30T08:47:31.752Z,11.47
2017-04-30T08:48:12.368Z,11.47
2017-04-30T08:48:52.906Z,11.43
2017-04-30T08:49:33.443Z,11.52
2017-04-30T08:50:14.008Z,11.51
2017-04-30T08:50:54.560Z,11.54
2017-04-30T08:51:35.269Z,11.59
2017-04-30T08:52:16.943Z,11.52
2017-04-30T08:52:57.519Z,11.6
2017-04-30T08:53:38.169Z,11.6
2017-04-30T08:54:18.855Z,11.57
2017-04-30T08:54:59.549Z,11.68
2017-04-30T08:55:40.112Z,11.83
2017-04-30T08:56:20.774Z,11.88
2017-04-30T08:57:01.464Z,11.87
2017-04-30T08:57:42.087Z,11.9
2017-04-30T08:58:22.745Z,12.06
2017-04-30T08:59:03.476Z,12.06
2017-04-30T08:59:44.152Z,12.1
2017-04-30T09:00:24.814Z,12.1
2017-04-30T09:02:12.978Z,12.27
2017-04-30T09:02:53.567Z,12.31
2017-04-30T09:03:34.272Z,12.37
2017-04-30T09:04:16.921Z,12.42
2017-04-30T09:04:57.575Z,12.42
2017-04-30T09:05:39.289Z,12.47
2017-04-30T09:06:20.936Z,12.57
2017-04-30T09:07:01.695Z,12.62
2017-04-30T09:07:43.369Z,12.57
2017-04-30T09:08:24.037Z,12.6
2017-04-30T09:09:04.815Z,12.54
2017-04-30T09:09:46.445Z,12.55
2017-04-30T09:10:27.127Z,12.55
2017-04-30T09:11:07.760Z,12.68
2017-04-30T09:11:48.446Z,12.65
2017-04-30T09:12:29.095Z,12.67
2017-04-30T09:13:09.754Z,12.75
2017-04-30T09:13:50.375Z,12.68
2017-04-30T09:14:31.952Z,12.8
2017-04-30T09:15:12.602Z,12.83
2017-04-30T09:15:53.255Z,12.83
2017-04-30T09:16:33.900Z,12.91
2017-04-30T09:17:16.507Z,12.95
2017-04-30T09:17:57.170Z,12.98
2017-04-30T09:18:37.822Z,13.05
2017-04-30T09:19:18.466Z,13.15
2017-04-30T09:19:59.128Z,13.15
2017-04-30T09:20:39.765Z,13.18
2017-04-30T09:21:20.504Z,13.27
2017-04-30T09:22:01.025Z,13.3
2017-04-30T09:22:41.577Z,13.39
2017-04-30T09:23:22.179Z,13.44
2017-04-30T09:24:02.814Z,13.49
2017-04-30T09:24:43.415Z,13.49
2017-04-30T09:25:24.135Z,13.49
2017-04-30T09:26:10.828Z,13.49
2017-04-30T09:26:51.405Z,13.52
2017-04-30T09:27:32.071Z,13.59
2017-04-30T09:28:12.687Z,13.59
2017-04-30T09:28:53.341Z,13.63
2017-04-30T09:29:35.019Z,13.62
2017-04-30T09:30:16.699Z,13.65
2017-04-30T09:30:57.353Z,13.74
2017-04-30T09:31:38.010Z,13.78
2017-04-30T09:32:18.636Z,13.79
2017-04-30T09:32:59.229Z,13.97
2017-04-30T09:33:39.879Z,14.03
2017-04-30T09:34:21.526Z,13.97
2017-04-30T09:35:02.202Z,14.04
2017-04-30T09:35:42.844Z,14.14
2017-04-30T09:36:23.549Z,14.17
2017-04-30T09:37:04.466Z,14.18
2017-04-30T09:37:45.889Z,14.2
2017-04-30T09:38:26.559Z,14.17
2017-04-30T09:39:07.237Z,14.17
2017-04-30T09:39:47.863Z,14.2
2017-04-30T09:40:28.527Z,14.23
2017-04-30T09:41:09.220Z,14.22
2017-04-30T09:41:49.870Z,14.22
2017-04-30T09:42:30.431Z,14.3